Overijse, Belgium
Current Conditions -  °F | °C
As of 11:20 AM on Wednesday 22 Oct 2014 (Local Time) from EBBR Reporting Station
Scattered Clouds Scattered Clouds  
Wind Chill:   Ceiling: Unl
Heat Index:   Visibility: 6mi
Dew Point:   Wind: 9mph
Humidity: 82%   Direction: 300°WNW
Pressure: 30.15"   Gusts: NA
Location:  50.77°N, 4.53°E
Report Text: EBBR 220920Z 30008KT 9999 SCT028 SCT043 09/06 Q1021 NOSIG
Loading
Personal Weather Stations






























Interactive Weather Map
Tropical Storm Tracking
New forecast layout! Learn more

10-Day Weather Forecast

Advertisements
Track Severe Weather on mobile